sensor_id;sensor_type;location;lat;lon;timestamp;temperature;humidity
6307;DHT22;3186;54.062;9.962;2023-03-19T00:02:21;10.70;99.90
6307;DHT22;3186;54.062;9.962;2023-03-19T00:04:47;10.70;99.90
6307;DHT22;3186;54.062;9.962;2023-03-19T00:07:14;10.70;99.90
6307;DHT22;3186;54.062;9.962;2023-03-19T00:09:41;10.70;99.90
6307;DHT22;3186;54.062;9.962;2023-03-19T00:12:08;10.70;99.90
6307;DHT22;3186;54.062;9.962;2023-03-19T00:14:34;10.70;99.90
6307;DHT22;3186;54.062;9.962;2023-03-19T00:17:00;10.60;99.90
6307;DHT22;3186;54.062;9.962;2023-03-19T00:19:26;10.80;99.90
6307;DHT22;3186;54.062;9.962;2023-03-19T00:21:52;10.60;99.90
6307;DHT22;3186;54.062;9.962;2023-03-19T00:24:18;10.60;99.90
6307;DHT22;3186;54.062;9.962;2023-03-19T00:26:45;10.60;99.90
6307;DHT22;3186;54.062;9.962;2023-03-19T00:29:11;10.50;99.90
6307;DHT22;3186;54.062;9.962;2023-03-19T00:31:38;10.50;99.90
6307;DHT22;3186;54.062;9.962;2023-03-19T00:34:05;10.50;99.90
6307;DHT22;3186;54.062;9.962;2023-03-19T00:36:31;10.40;99.90
6307;DHT22;3186;54.062;9.962;2023-03-19T00:38:57;10.40;99.90
6307;DHT22;3186;54.062;9.962;2023-03-19T00:41:23;10.40;99.90
6307;DHT22;3186;54.062;9.962;2023-03-19T00:43:56;10.40;99.90
6307;DHT22;3186;54.062;9.962;2023-03-19T00:46:23;10.40;99.90
6307;DHT22;3186;54.062;9.962;2023-03-19T00:48:49;10.40;99.90
6307;DHT22;3186;54.062;9.962;2023-03-19T00:51:18;10.40;99.90
6307;DHT22;3186;54.062;9.962;2023-03-19T00:53:44;10.40;99.90
6307;DHT22;3186;54.062;9.962;2023-03-19T00:56:13;10.30;99.90
6307;DHT22;3186;54.062;9.962;2023-03-19T00:58:40;10.30;99.90
6307;DHT22;3186;54.062;9.962;2023-03-19T01:01:11;10.30;99.90
6307;DHT22;3186;54.062;9.962;2023-03-19T01:03:37;10.20;99.90
6307;DHT22;3186;54.062;9.962;2023-03-19T01:06:05;10.20;99.90
6307;DHT22;3186;54.062;9.962;2023-03-19T01:08:31;10.20;99.90
6307;DHT22;3186;54.062;9.962;2023-03-19T01:11:04;10.10;99.90
6307;DHT22;3186;54.062;9.962;2023-03-19T01:13:31;10.20;99.90
6307;DHT22;3186;54.062;9.962;2023-03-19T01:15:57;10.10;99.90
6307;DHT22;3186;54.062;9.962;2023-03-19T01:18:22;10.10;99.90
6307;DHT22;3186;54.062;9.962;2023-03-19T01:20:48;10.10;99.90
6307;DHT22;3186;54.062;9.962;2023-03-19T01:23:14;10.10;99.90
6307;DHT22;3186;54.062;9.962;2023-03-19T01:25:40;10.00;99.90
6307;DHT22;3186;54.062;9.962;2023-03-19T01:28:06;10.00;99.90
6307;DHT22;3186;54.062;9.962;2023-03-19T01:30:34;9.90;99.90
6307;DHT22;3186;54.062;9.962;2023-03-19T01:33:15;9.90;99.90
6307;DHT22;3186;54.062;9.962;2023-03-19T01:35:52;9.90;99.90
6307;DHT22;3186;54.062;9.962;2023-03-19T01:38:20;9.90;99.90
6307;DHT22;3186;54.062;9.962;2023-03-19T01:40:48;9.80;99.90
6307;DHT22;3186;54.062;9.962;2023-03-19T01:43:23;9.80;99.90
6307;DHT22;3186;54.062;9.962;2023-03-19T01:46:06;9.80;99.90
6307;DHT22;3186;54.062;9.962;2023-03-19T01:48:59;9.70;99.90
6307;DHT22;3186;54.062;9.962;2023-03-19T01:51:29;9.70;99.90
6307;DHT22;3186;54.062;9.962;2023-03-19T01:54:20;9.70;99.90
6307;DHT22;3186;54.062;9.962;2023-03-19T01:57:14;9.70;99.90
6307;DHT22;3186;54.062;9.962;2023-03-19T02:00:00;9.60;99.90
6307;DHT22;3186;54.062;9.962;2023-03-19T02:02:45;9.60;99.90
6307;DHT22;3186;54.062;9.962;2023-03-19T02:05:46;9.60;99.90
6307;DHT22;3186;54.062;9.962;2023-03-19T02:08:15;9.60;99.90
6307;DHT22;3186;54.062;9.962;2023-03-19T02:10:42;9.60;99.90
6307;DHT22;3186;54.062;9.962;2023-03-19T02:13:09;9.70;99.90
6307;DHT22;3186;54.062;9.962;2023-03-19T02:15:35;9.50;99.90
6307;DHT22;3186;54.062;9.962;2023-03-19T02:18:01;9.50;99.90
6307;DHT22;3186;54.062;9.962;2023-03-19T02:26:13;9.40;99.90
6307;DHT22;3186;54.062;9.962;2023-03-19T02:28:45;9.40;99.90
6307;DHT22;3186;54.062;9.962;2023-03-19T02:31:16;9.40;99.90
6307;DHT22;3186;54.062;9.962;2023-03-19T02:33:43;9.30;99.90
6307;DHT22;3186;54.062;9.962;2023-03-19T02:36:15;9.30;99.90
6307;DHT22;3186;54.062;9.962;2023-03-19T02:38:43;8.50;99.90
6307;DHT22;3186;54.062;9.962;2023-03-19T02:41:11;11.10;99.90
6307;DHT22;3186;54.062;9.962;2023-03-19T02:43:39;9.20;99.90
6307;DHT22;3186;54.062;9.962;2023-03-19T02:46:08;9.20;99.90
6307;DHT22;3186;54.062;9.962;2023-03-19T02:48:35;9.20;99.90
6307;DHT22;3186;54.062;9.962;2023-03-19T02:51:02;9.20;99.90
6307;DHT22;3186;54.062;9.962;2023-03-19T02:53:28;9.10;99.90
6307;DHT22;3186;54.062;9.962;2023-03-19T02:55:54;9.10;99.90
6307;DHT22;3186;54.062;9.962;2023-03-19T02:58:20;9.10;99.90
6307;DHT22;3186;54.062;9.962;2023-03-19T03:00:46;9.00;99.90
6307;DHT22;3186;54.062;9.962;2023-03-19T03:03:12;9.00;99.90
6307;DHT22;3186;54.062;9.962;2023-03-19T03:05:38;9.00;99.90
6307;DHT22;3186;54.062;9.962;2023-03-19T03:08:04;9.00;99.90
6307;DHT22;3186;54.062;9.962;2023-03-19T03:10:31;8.90;99.90
6307;DHT22;3186;54.062;9.962;2023-03-19T03:12:58;8.90;99.90
6307;DHT22;3186;54.062;9.962;2023-03-19T03:15:24;8.90;99.90
6307;DHT22;3186;54.062;9.962;2023-03-19T03:17:50;8.80;99.90
6307;DHT22;3186;54.062;9.962;2023-03-19T03:20:17;8.80;99.90
6307;DHT22;3186;54.062;9.962;2023-03-19T03:22:45;8.80;99.90
6307;DHT22;3186;54.062;9.962;2023-03-19T03:25:11;8.80;99.90
6307;DHT22;3186;54.062;9.962;2023-03-19T03:27:37;8.80;99.90
6307;DHT22;3186;54.062;9.962;2023-03-19T03:30:05;8.70;99.90
6307;DHT22;3186;54.062;9.962;2023-03-19T03:32:35;8.70;99.90
6307;DHT22;3186;54.062;9.962;2023-03-19T03:35:01;8.70;99.90
6307;DHT22;3186;54.062;9.962;2023-03-19T03:37:28;8.60;99.90
6307;DHT22;3186;54.062;9.962;2023-03-19T03:42:21;7.60;99.90
6307;DHT22;3186;54.062;9.962;2023-03-19T03:44:47;8.60;99.90
6307;DHT22;3186;54.062;9.962;2023-03-19T03:47:14;8.60;99.90
6307;DHT22;3186;54.062;9.962;2023-03-19T03:49:40;8.50;99.90
6307;DHT22;3186;54.062;9.962;2023-03-19T03:52:06;8.50;99.90
6307;DHT22;3186;54.062;9.962;2023-03-19T03:54:33;8.50;99.90
6307;DHT22;3186;54.062;9.962;2023-03-19T03:56:59;8.50;99.90
6307;DHT22;3186;54.062;9.962;2023-03-19T03:59:26;8.40;99.90
6307;DHT22;3186;54.062;9.962;2023-03-19T04:01:52;8.40;99.90
6307;DHT22;3186;54.062;9.962;2023-03-19T04:04:18;8.40;99.90
6307;DHT22;3186;54.062;9.962;2023-03-19T04:06:45;8.40;99.90
6307;DHT22;3186;54.062;9.962;2023-03-19T04:09:35;8.30;99.90
6307;DHT22;3186;54.062;9.962;2023-03-19T04:12:02;8.30;99.90
6307;DHT22;3186;54.062;9.962;2023-03-19T04:14:28;8.30;99.90
6307;DHT22;3186;54.062;9.962;2023-03-19T04:16:55;8.30;99.90
6307;DHT22;3186;54.062;9.962;2023-03-19T04:19:21;8.20;99.90
6307;DHT22;3186;54.062;9.962;2023-03-19T04:21:47;8.20;99.90
6307;DHT22;3186;54.062;9.962;2023-03-19T04:24:13;8.20;99.90
6307;DHT22;3186;54.062;9.962;2023-03-19T04:26:39;8.10;99.90
6307;DHT22;3186;54.062;9.962;2023-03-19T04:29:06;8.10;99.90
6307;DHT22;3186;54.062;9.962;2023-03-19T04:31:33;8.10;99.90
6307;DHT22;3186;54.062;9.962;2023-03-19T04:33:59;8.00;99.90
6307;DHT22;3186;54.062;9.962;2023-03-19T04:36:25;8.10;99.90
6307;DHT22;3186;54.062;9.962;2023-03-19T04:38:51;8.00;99.90
6307;DHT22;3186;54.062;9.962;2023-03-19T04:41:18;7.90;99.90
6307;DHT22;3186;54.062;9.962;2023-03-19T04:43:59;7.90;99.90
6307;DHT22;3186;54.062;9.962;2023-03-19T04:46:27;7.90;99.90
6307;DHT22;3186;54.062;9.962;2023-03-19T04:48:52;7.90;99.90
6307;DHT22;3186;54.062;9.962;2023-03-19T04:51:18;7.80;99.90
6307;DHT22;3186;54.062;9.962;2023-03-19T04:53:47;7.80;99.90
6307;DHT22;3186;54.062;9.962;2023-03-19T04:56:14;7.80;99.90
6307;DHT22;3186;54.062;9.962;2023-03-19T04:58:44;7.80;99.90
6307;DHT22;3186;54.062;9.962;2023-03-19T05:01:10;7.80;99.90
6307;DHT22;3186;54.062;9.962;2023-03-19T05:03:54;7.70;99.90
6307;DHT22;3186;54.062;9.962;2023-03-19T05:06:21;7.70;99.90
6307;DHT22;3186;54.062;9.962;2023-03-19T05:08:47;7.70;99.90
6307;DHT22;3186;54.062;9.962;2023-03-19T05:11:15;7.70;99.90
6307;DHT22;3186;54.062;9.962;2023-03-19T05:13:56;7.70;99.90
6307;DHT22;3186;54.062;9.962;2023-03-19T05:16:22;7.70;99.90
6307;DHT22;3186;54.062;9.962;2023-03-19T05:18:48;7.60;99.90
6307;DHT22;3186;54.062;9.962;2023-03-19T05:21:14;7.60;99.90
6307;DHT22;3186;54.062;9.962;2023-03-19T05:23:42;7.60;99.90
6307;DHT22;3186;54.062;9.962;2023-03-19T05:26:09;7.60;99.90
6307;DHT22;3186;54.062;9.962;2023-03-19T05:28:53;7.60;99.90
6307;DHT22;3186;54.062;9.962;2023-03-19T05:31:27;7.60;99.90
6307;DHT22;3186;54.062;9.962;2023-03-19T05:33:53;7.60;99.90
6307;DHT22;3186;54.062;9.962;2023-03-19T05:36:20;7.60;99.90
6307;DHT22;3186;54.062;9.962;2023-03-19T05:39:12;7.60;99.90
6307;DHT22;3186;54.062;9.962;2023-03-19T05:41:40;7.60;99.90
6307;DHT22;3186;54.062;9.962;2023-03-19T05:44:06;7.60;99.90
6307;DHT22;3186;54.062;9.962;2023-03-19T05:47:02;7.60;99.90
6307;DHT22;3186;54.062;9.962;2023-03-19T05:49:32;7.60;99.90
6307;DHT22;3186;54.062;9.962;2023-03-19T05:51:58;7.60;99.90
6307;DHT22;3186;54.062;9.962;2023-03-19T05:54:23;7.60;99.90
6307;DHT22;3186;54.062;9.962;2023-03-19T05:57:06;7.60;99.90
6307;DHT22;3186;54.062;9.962;2023-03-19T05:59:37;7.60;99.90
6307;DHT22;3186;54.062;9.962;2023-03-19T06:02:33;7.60;99.90
6307;DHT22;3186;54.062;9.962;2023-03-19T06:05:20;7.60;99.90
6307;DHT22;3186;54.062;9.962;2023-03-19T06:07:47;7.60;99.90
6307;DHT22;3186;54.062;9.962;2023-03-19T06:10:23;7.60;99.90
6307;DHT22;3186;54.062;9.962;2023-03-19T06:12:52;7.60;99.90
6307;DHT22;3186;54.062;9.962;2023-03-19T06:15:32;7.60;99.90
6307;DHT22;3186;54.062;9.962;2023-03-19T06:18:17;7.60;99.90
6307;DHT22;3186;54.062;9.962;2023-03-19T06:20:45;7.60;99.90
6307;DHT22;3186;54.062;9.962;2023-03-19T06:23:13;7.60;99.90
6307;DHT22;3186;54.062;9.962;2023-03-19T06:25:39;7.60;99.90
6307;DHT22;3186;54.062;9.962;2023-03-19T06:28:05;7.60;99.90
6307;DHT22;3186;54.062;9.962;2023-03-19T06:30:36;7.60;99.90
6307;DHT22;3186;54.062;9.962;2023-03-19T06:33:11;7.50;99.90
6307;DHT22;3186;54.062;9.962;2023-03-19T06:35:37;7.60;99.90
6307;DHT22;3186;54.062;9.962;2023-03-19T06:38:03;7.60;99.90
6307;DHT22;3186;54.062;9.962;2023-03-19T06:40:29;7.60;99.90
6307;DHT22;3186;54.062;9.962;2023-03-19T06:42:54;7.60;99.90
6307;DHT22;3186;54.062;9.962;2023-03-19T06:45:21;7.60;99.90
6307;DHT22;3186;54.062;9.962;2023-03-19T06:47:47;7.60;99.90
6307;DHT22;3186;54.062;9.962;2023-03-19T06:50:14;7.60;99.90
6307;DHT22;3186;54.062;9.962;2023-03-19T06:52:41;7.60;99.90
6307;DHT22;3186;54.062;9.962;2023-03-19T06:55:07;7.60;99.90
6307;DHT22;3186;54.062;9.962;2023-03-19T06:57:34;7.60;99.90
6307;DHT22;3186;54.062;9.962;2023-03-19T07:00:00;7.60;99.90
6307;DHT22;3186;54.062;9.962;2023-03-19T07:02:26;7.60;99.90
6307;DHT22;3186;54.062;9.962;2023-03-19T07:04:52;7.70;99.90
6307;DHT22;3186;54.062;9.962;2023-03-19T07:07:18;7.60;99.90
6307;DHT22;3186;54.062;9.962;2023-03-19T07:09:44;7.60;99.90
6307;DHT22;3186;54.062;9.962;2023-03-19T07:12:10;7.60;99.90
6307;DHT22;3186;54.062;9.962;2023-03-19T07:14:36;7.70;99.90
6307;DHT22;3186;54.062;9.962;2023-03-19T07:17:02;7.80;99.90
6307;DHT22;3186;54.062;9.962;2023-03-19T07:19:27;7.90;99.90
6307;DHT22;3186;54.062;9.962;2023-03-19T07:21:53;8.10;99.90
6307;DHT22;3186;54.062;9.962;2023-03-19T07:24:19;8.30;99.90
6307;DHT22;3186;54.062;9.962;2023-03-19T07:26:45;8.50;99.90
6307;DHT22;3186;54.062;9.962;2023-03-19T07:29:12;8.60;99.90
6307;DHT22;3186;54.062;9.962;2023-03-19T07:31:38;8.90;99.90
6307;DHT22;3186;54.062;9.962;2023-03-19T07:34:04;9.10;99.90
6307;DHT22;3186;54.062;9.962;2023-03-19T07:36:30;9.30;99.90
6307;DHT22;3186;54.062;9.962;2023-03-19T07:38:56;9.50;99.90
6307;DHT22;3186;54.062;9.962;2023-03-19T07:41:22;9.60;99.90
6307;DHT22;3186;54.062;9.962;2023-03-19T07:43:48;9.70;99.90
6307;DHT22;3186;54.062;9.962;2023-03-19T07:46:14;9.90;99.90
6307;DHT22;3186;54.062;9.962;2023-03-19T07:48:40;9.90;99.90
6307;DHT22;3186;54.062;9.962;2023-03-19T07:51:06;10.10;99.90
6307;DHT22;3186;54.062;9.962;2023-03-19T07:53:31;9.80;99.90
6307;DHT22;3186;54.062;9.962;2023-03-19T07:55:57;9.80;99.90
6307;DHT22;3186;54.062;9.962;2023-03-19T07:58:23;9.90;99.90
6307;DHT22;3186;54.062;9.962;2023-03-19T08:00:49;10.10;99.90
6307;DHT22;3186;54.062;9.962;2023-03-19T08:03:15;10.20;99.90
6307;DHT22;3186;54.062;9.962;2023-03-19T08:05:41;10.50;99.90
6307;DHT22;3186;54.062;9.962;2023-03-19T08:08:06;10.40;99.90
6307;DHT22;3186;54.062;9.962;2023-03-19T08:10:32;10.60;99.90
6307;DHT22;3186;54.062;9.962;2023-03-19T08:12:58;10.90;99.90
6307;DHT22;3186;54.062;9.962;2023-03-19T08:15:24;10.70;99.90
6307;DHT22;3186;54.062;9.962;2023-03-19T08:17:59;11.00;99.90
6307;DHT22;3186;54.062;9.962;2023-03-19T08:20:25;11.20;99.90
6307;DHT22;3186;54.062;9.962;2023-03-19T08:22:51;11.30;99.90
6307;DHT22;3186;54.062;9.962;2023-03-19T08:25:17;11.40;99.90
6307;DHT22;3186;54.062;9.962;2023-03-19T08:27:42;11.40;99.90
6307;DHT22;3186;54.062;9.962;2023-03-19T08:30:09;11.50;99.90
6307;DHT22;3186;54.062;9.962;2023-03-19T08:32:36;11.50;99.90
6307;DHT22;3186;54.062;9.962;2023-03-19T08:35:03;11.50;99.90
6307;DHT22;3186;54.062;9.962;2023-03-19T08:37:29;11.50;99.90
6307;DHT22;3186;54.062;9.962;2023-03-19T08:39:55;11.60;99.90
6307;DHT22;3186;54.062;9.962;2023-03-19T08:42:21;11.40;99.90
6307;DHT22;3186;54.062;9.962;2023-03-19T08:44:48;11.60;99.90
6307;DHT22;3186;54.062;9.962;2023-03-19T08:47:14;11.80;99.90
6307;DHT22;3186;54.062;9.962;2023-03-19T08:49:40;11.90;99.90
6307;DHT22;3186;54.062;9.962;2023-03-19T08:52:06;12.00;99.90
6307;DHT22;3186;54.062;9.962;2023-03-19T08:54:32;12.10;99.90
6307;DHT22;3186;54.062;9.962;2023-03-19T08:56:59;12.10;99.90
6307;DHT22;3186;54.062;9.962;2023-03-19T08:59:26;12.40;99.90
6307;DHT22;3186;54.062;9.962;2023-03-19T09:01:53;12.50;99.90
6307;DHT22;3186;54.062;9.962;2023-03-19T09:04:19;12.90;99.90
6307;DHT22;3186;54.062;9.962;2023-03-19T09:06:47;13.20;99.90
6307;DHT22;3186;54.062;9.962;2023-03-19T09:09:17;13.10;99.90
6307;DHT22;3186;54.062;9.962;2023-03-19T09:11:43;13.10;99.90
6307;DHT22;3186;54.062;9.962;2023-03-19T09:14:11;13.20;99.90
6307;DHT22;3186;54.062;9.962;2023-03-19T09:16:38;13.30;99.90
6307;DHT22;3186;54.062;9.962;2023-03-19T09:19:05;13.40;99.90
6307;DHT22;3186;54.062;9.962;2023-03-19T09:21:31;13.70;99.90
6307;DHT22;3186;54.062;9.962;2023-03-19T09:23:56;13.90;99.90
6307;DHT22;3186;54.062;9.962;2023-03-19T09:26:22;14.30;99.90
6307;DHT22;3186;54.062;9.962;2023-03-19T09:28:48;14.40;99.90
6307;DHT22;3186;54.062;9.962;2023-03-19T09:31:14;14.80;99.90
6307;DHT22;3186;54.062;9.962;2023-03-19T09:33:40;14.90;99.90
6307;DHT22;3186;54.062;9.962;2023-03-19T09:36:06;15.10;99.90
6307;DHT22;3186;54.062;9.962;2023-03-19T09:38:32;15.10;99.90
6307;DHT22;3186;54.062;9.962;2023-03-19T09:41:06;15.30;99.90
6307;DHT22;3186;54.062;9.962;2023-03-19T09:46:44;15.30;99.90
6307;DHT22;3186;54.062;9.962;2023-03-19T09:49:33;15.20;99.90
6307;DHT22;3186;54.062;9.962;2023-03-19T09:57:42;16.00;99.90
6307;DHT22;3186;54.062;9.962;2023-03-19T10:00:29;16.30;99.90
6307;DHT22;3186;54.062;9.962;2023-03-19T10:06:05;16.40;99.90
6307;DHT22;3186;54.062;9.962;2023-03-19T10:16:47;15.70;99.90
6307;DHT22;3186;54.062;9.962;2023-03-19T10:19:20;15.60;99.90
6307;DHT22;3186;54.062;9.962;2023-03-19T10:21:54;15.40;99.90
6307;DHT22;3186;54.062;9.962;2023-03-19T10:24:35;15.30;99.90
6307;DHT22;3186;54.062;9.962;2023-03-19T10:27:18;15.30;99.90
6307;DHT22;3186;54.062;9.962;2023-03-19T10:29:44;15.40;99.90
6307;DHT22;3186;54.062;9.962;2023-03-19T10:32:19;15.40;99.90
6307;DHT22;3186;54.062;9.962;2023-03-19T10:34:49;15.50;99.90
6307;DHT22;3186;54.062;9.962;2023-03-19T10:37:19;15.60;99.90
6307;DHT22;3186;54.062;9.962;2023-03-19T10:39:47;15.60;99.90
6307;DHT22;3186;54.062;9.962;2023-03-19T10:45:23;17.00;99.90
6307;DHT22;3186;54.062;9.962;2023-03-19T10:47:51;15.60;99.90
6307;DHT22;3186;54.062;9.962;2023-03-19T10:50:20;15.60;99.90
6307;DHT22;3186;54.062;9.962;2023-03-19T10:52:57;15.50;99.90
6307;DHT22;3186;54.062;9.962;2023-03-19T10:55:29;15.50;99.90
6307;DHT22;3186;54.062;9.962;2023-03-19T10:58:19;15.30;99.90
6307;DHT22;3186;54.062;9.962;2023-03-19T11:00:48;15.30;99.90
6307;DHT22;3186;54.062;9.962;2023-03-19T11:08:29;15.20;99.90
6307;DHT22;3186;54.062;9.962;2023-03-19T11:10:58;15.20;99.90
6307;DHT22;3186;54.062;9.962;2023-03-19T11:13:25;15.10;99.90
6307;DHT22;3186;54.062;9.962;2023-03-19T11:15:52;15.10;99.90
6307;DHT22;3186;54.062;9.962;2023-03-19T11:18:35;15.10;99.90
6307;DHT22;3186;54.062;9.962;2023-03-19T11:21:26;15.10;99.90
6307;DHT22;3186;54.062;9.962;2023-03-19T11:23:59;15.20;99.90
6307;DHT22;3186;54.062;9.962;2023-03-19T11:26:25;15.10;99.90
6307;DHT22;3186;54.062;9.962;2023-03-19T11:28:57;15.00;99.90
6307;DHT22;3186;54.062;9.962;2023-03-19T11:31:33;15.00;99.90
6307;DHT22;3186;54.062;9.962;2023-03-19T11:34:14;15.10;99.90
6307;DHT22;3186;54.062;9.962;2023-03-19T11:47:33;15.20;99.90
6307;DHT22;3186;54.062;9.962;2023-03-19T11:50:25;15.20;99.90
6307;DHT22;3186;54.062;9.962;2023-03-19T11:56:16;15.20;99.90
6307;DHT22;3186;54.062;9.962;2023-03-19T12:30:31;15.70;99.90
6307;DHT22;3186;54.062;9.962;2023-03-19T12:33:44;15.60;99.90
6307;DHT22;3186;54.062;9.962;2023-03-19T12:36:20;15.50;99.90
6307;DHT22;3186;54.062;9.962;2023-03-19T12:38:57;15.40;99.90
6307;DHT22;3186;54.062;9.962;2023-03-19T12:41:25;15.40;99.90
6307;DHT22;3186;54.062;9.962;2023-03-19T12:47:30;15.60;99.90
6307;DHT22;3186;54.062;9.962;2023-03-19T12:49:38;15.40;99.90
6307;DHT22;3186;54.062;9.962;2023-03-19T12:52:27;15.50;99.90
6307;DHT22;3186;54.062;9.962;2023-03-19T12:55:01;15.60;99.90
6307;DHT22;3186;54.062;9.962;2023-03-19T13:00:04;15.60;99.90
6307;DHT22;3186;54.062;9.962;2023-03-19T13:05:08;15.70;99.90
6307;DHT22;3186;54.062;9.962;2023-03-19T13:10:35;15.70;99.90
6307;DHT22;3186;54.062;9.962;2023-03-19T13:16:28;15.80;99.90
6307;DHT22;3186;54.062;9.962;2023-03-19T13:20:15;15.80;99.90
6307;DHT22;3186;54.062;9.962;2023-03-19T13:22:12;15.80;99.90
6307;DHT22;3186;54.062;9.962;2023-03-19T13:24:40;15.80;99.90
6307;DHT22;3186;54.062;9.962;2023-03-19T13:27:13;15.80;99.90
6307;DHT22;3186;54.062;9.962;2023-03-19T13:32:43;15.90;99.90
6307;DHT22;3186;54.062;9.962;2023-03-19T13:35:45;15.90;99.90
6307;DHT22;3186;54.062;9.962;2023-03-19T13:41:00;15.90;99.90
6307;DHT22;3186;54.062;9.962;2023-03-19T13:56:20;16.10;99.90
6307;DHT22;3186;54.062;9.962;2023-03-19T13:59:17;15.90;99.90
6307;DHT22;3186;54.062;9.962;2023-03-19T14:01:39;15.70;99.90
6307;DHT22;3186;54.062;9.962;2023-03-19T14:04:24;15.80;99.90
6307;DHT22;3186;54.062;9.962;2023-03-19T14:06:58;15.90;99.90
6307;DHT22;3186;54.062;9.962;2023-03-19T14:14:46;16.30;99.90
6307;DHT22;3186;54.062;9.962;2023-03-19T14:22:37;16.10;99.90
6307;DHT22;3186;54.062;9.962;2023-03-19T14:25:18;16.10;99.90
6307;DHT22;3186;54.062;9.962;2023-03-19T14:27:56;16.20;99.90
6307;DHT22;3186;54.062;9.962;2023-03-19T14:30:35;16.20;99.90
6307;DHT22;3186;54.062;9.962;2023-03-19T14:33:06;16.10;99.90
6307;DHT22;3186;54.062;9.962;2023-03-19T14:35:40;16.20;99.90
6307;DHT22;3186;54.062;9.962;2023-03-19T14:38:24;16.20;99.90
6307;DHT22;3186;54.062;9.962;2023-03-19T14:40:55;16.20;99.90
6307;DHT22;3186;54.062;9.962;2023-03-19T14:46:00;16.20;99.90
6307;DHT22;3186;54.062;9.962;2023-03-19T14:56:55;16.00;99.90
6307;DHT22;3186;54.062;9.962;2023-03-19T14:59:20;16.00;99.90
6307;DHT22;3186;54.062;9.962;2023-03-19T15:01:51;16.00;99.90
6307;DHT22;3186;54.062;9.962;2023-03-19T15:04:20;16.10;99.90
6307;DHT22;3186;54.062;9.962;2023-03-19T15:06:53;16.00;99.90
6307;DHT22;3186;54.062;9.962;2023-03-19T15:17:20;16.20;99.90
6307;DHT22;3186;54.062;9.962;2023-03-19T15:19:48;16.30;99.90
6307;DHT22;3186;54.062;9.962;2023-03-19T15:22:25;16.10;99.90
6307;DHT22;3186;54.062;9.962;2023-03-19T15:24:51;16.00;99.90
6307;DHT22;3186;54.062;9.962;2023-03-19T15:27:23;16.00;99.90
6307;DHT22;3186;54.062;9.962;2023-03-19T15:29:50;16.00;99.90
6307;DHT22;3186;54.062;9.962;2023-03-19T15:32:36;16.00;99.90
6307;DHT22;3186;54.062;9.962;2023-03-19T15:35:04;16.10;99.90
6307;DHT22;3186;54.062;9.962;2023-03-19T15:37:34;16.10;99.90
6307;DHT22;3186;54.062;9.962;2023-03-19T15:40:03;16.10;99.90
6307;DHT22;3186;54.062;9.962;2023-03-19T15:42:31;16.10;99.90
6307;DHT22;3186;54.062;9.962;2023-03-19T15:44:59;16.10;99.90
6307;DHT22;3186;54.062;9.962;2023-03-19T15:47:30;15.90;99.90
6307;DHT22;3186;54.062;9.962;2023-03-19T15:50:11;15.80;99.90
6307;DHT22;3186;54.062;9.962;2023-03-19T15:52:41;15.80;99.90
6307;DHT22;3186;54.062;9.962;2023-03-19T15:55:12;15.90;99.90
6307;DHT22;3186;54.062;9.962;2023-03-19T15:57:40;15.90;99.90
6307;DHT22;3186;54.062;9.962;2023-03-19T16:00:08;15.30;99.90
6307;DHT22;3186;54.062;9.962;2023-03-19T16:02:42;15.30;99.90
6307;DHT22;3186;54.062;9.962;2023-03-19T16:05:26;15.30;99.90
6307;DHT22;3186;54.062;9.962;2023-03-19T16:08:09;15.40;99.90
6307;DHT22;3186;54.062;9.962;2023-03-19T16:10:41;15.30;99.90
6307;DHT22;3186;54.062;9.962;2023-03-19T16:15:52;15.40;99.90
6307;DHT22;3186;54.062;9.962;2023-03-19T16:20:58;15.40;99.90
6307;DHT22;3186;54.062;9.962;2023-03-19T16:23:49;15.40;99.90
6307;DHT22;3186;54.062;9.962;2023-03-19T16:26:24;15.40;99.90
6307;DHT22;3186;54.062;9.962;2023-03-19T16:29:04;15.40;99.90
6307;DHT22;3186;54.062;9.962;2023-03-19T16:31:30;15.20;99.90
6307;DHT22;3186;54.062;9.962;2023-03-19T16:33:58;15.20;99.90
6307;DHT22;3186;54.062;9.962;2023-03-19T16:36:30;15.20;99.90
6307;DHT22;3186;54.062;9.962;2023-03-19T16:39:28;15.20;99.90
6307;DHT22;3186;54.062;9.962;2023-03-19T16:45:01;15.20;99.90
6307;DHT22;3186;54.062;9.962;2023-03-19T16:47:28;15.20;99.90
6307;DHT22;3186;54.062;9.962;2023-03-19T16:49:53;15.10;99.90
6307;DHT22;3186;54.062;9.962;2023-03-19T16:52:22;15.00;99.90
6307;DHT22;3186;54.062;9.962;2023-03-19T16:54:49;15.10;99.90
6307;DHT22;3186;54.062;9.962;2023-03-19T16:57:16;15.10;99.90
6307;DHT22;3186;54.062;9.962;2023-03-19T16:59:44;15.10;99.90
6307;DHT22;3186;54.062;9.962;2023-03-19T17:02:16;14.90;99.90
6307;DHT22;3186;54.062;9.962;2023-03-19T17:04:43;15.10;99.90
6307;DHT22;3186;54.062;9.962;2023-03-19T17:07:09;15.00;99.90
6307;DHT22;3186;54.062;9.962;2023-03-19T17:09:35;15.10;99.90
6307;DHT22;3186;54.062;9.962;2023-03-19T17:12:02;15.00;99.90
6307;DHT22;3186;54.062;9.962;2023-03-19T17:14:30;14.90;99.90
6307;DHT22;3186;54.062;9.962;2023-03-19T17:16:57;14.80;99.90
6307;DHT22;3186;54.062;9.962;2023-03-19T17:19:31;14.90;99.90
6307;DHT22;3186;54.062;9.962;2023-03-19T17:21:58;14.90;99.90
6307;DHT22;3186;54.062;9.962;2023-03-19T17:24:25;14.80;99.90
6307;DHT22;3186;54.062;9.962;2023-03-19T17:26:51;14.80;99.90
6307;DHT22;3186;54.062;9.962;2023-03-19T17:29:18;14.70;99.90
6307;DHT22;3186;54.062;9.962;2023-03-19T17:31:49;14.70;99.90
6307;DHT22;3186;54.062;9.962;2023-03-19T17:34:26;14.60;99.90
6307;DHT22;3186;54.062;9.962;2023-03-19T17:37:00;14.60;99.90
6307;DHT22;3186;54.062;9.962;2023-03-19T17:39:27;14.60;99.90
6307;DHT22;3186;54.062;9.962;2023-03-19T17:41:57;14.50;99.90
6307;DHT22;3186;54.062;9.962;2023-03-19T17:44:22;14.40;99.90
6307;DHT22;3186;54.062;9.962;2023-03-19T17:46:52;14.40;99.90
6307;DHT22;3186;54.062;9.962;2023-03-19T17:49:28;14.30;99.90
6307;DHT22;3186;54.062;9.962;2023-03-19T17:51:57;14.20;99.90
6307;DHT22;3186;54.062;9.962;2023-03-19T17:54:23;14.20;99.90
6307;DHT22;3186;54.062;9.962;2023-03-19T17:56:52;14.10;99.90
6307;DHT22;3186;54.062;9.962;2023-03-19T17:59:17;14.10;99.90
6307;DHT22;3186;54.062;9.962;2023-03-19T18:01:44;14.00;99.90
6307;DHT22;3186;54.062;9.962;2023-03-19T18:04:19;14.00;99.90
6307;DHT22;3186;54.062;9.962;2023-03-19T18:06:53;13.90;99.90
6307;DHT22;3186;54.062;9.962;2023-03-19T18:09:25;13.80;99.90
6307;DHT22;3186;54.062;9.962;2023-03-19T18:11:53;13.80;99.90
6307;DHT22;3186;54.062;9.962;2023-03-19T18:14:18;13.70;99.90
6307;DHT22;3186;54.062;9.962;2023-03-19T18:16:45;13.90;99.90
6307;DHT22;3186;54.062;9.962;2023-03-19T18:19:29;13.60;99.90
6307;DHT22;3186;54.062;9.962;2023-03-19T18:21:55;13.60;99.90
6307;DHT22;3186;54.062;9.962;2023-03-19T18:24:21;13.50;99.90
6307;DHT22;3186;54.062;9.962;2023-03-19T18:26:46;13.40;99.90
6307;DHT22;3186;54.062;9.962;2023-03-19T18:29:12;13.40;99.90
6307;DHT22;3186;54.062;9.962;2023-03-19T18:31:38;13.30;99.90
6307;DHT22;3186;54.062;9.962;2023-03-19T18:34:07;13.30;99.90
6307;DHT22;3186;54.062;9.962;2023-03-19T18:36:37;13.20;99.90
6307;DHT22;3186;54.062;9.962;2023-03-19T18:39:08;13.10;99.90
6307;DHT22;3186;54.062;9.962;2023-03-19T18:41:35;13.10;99.90
6307;DHT22;3186;54.062;9.962;2023-03-19T18:44:04;13.00;99.90
6307;DHT22;3186;54.062;9.962;2023-03-19T18:46:31;12.90;99.90
6307;DHT22;3186;54.062;9.962;2023-03-19T18:49:13;12.90;99.90
6307;DHT22;3186;54.062;9.962;2023-03-19T18:51:41;12.80;99.90
6307;DHT22;3186;54.062;9.962;2023-03-19T18:54:08;12.70;99.90
6307;DHT22;3186;54.062;9.962;2023-03-19T18:56:35;12.60;99.90
6307;DHT22;3186;54.062;9.962;2023-03-19T18:59:02;12.50;99.90
6307;DHT22;3186;54.062;9.962;2023-03-19T19:01:32;12.40;99.90